Time;durP1;ratioP1;P1;durP2;ratioP2;P2;SDS_P1;SDS_P2;PMS_P1;PMS_P2;Temp;Humidity;BMP_temperature;BMP_pressure;BME280_temperature;BME280_humidity;BME280_pressure;Samples;Min_cycle;Max_cycle;Signal;HPM_P1;HPM_P2
2023/07/03 00:00:31;;;;;;;;;;;;;;;23.16;48.22;100423.44;4983048;28;4298;-70
2023/07/03 00:02:57;;;;;;;;;;;;;;;23.15;48.19;100419.06;4984681;28;4401;-69
2023/07/03 00:05:24;;;;;;;;;;;;;;;23.14;47.92;100423.38;4979979;28;4142;-69
2023/07/03 00:07:51;;;;;;;;;;;;;;;23.11;48.16;100419.69;4980356;28;4214;-69
2023/07/03 00:10:17;;;;;;;;;;;;;;;23.13;48.16;100419.00;4982081;28;4662;-69
2023/07/03 00:12:44;;;;;;;;;;;;;;;23.12;47.79;100420.44;4981993;28;4142;-69
2023/07/03 00:15:10;;;;;;;;;;;;;;;23.13;48.04;100416.09;4980954;28;4171;-69
2023/07/03 00:17:40;;;;;;;;;;;;;;;23.10;47.67;100418.22;4982250;28;4780;-69
2023/07/03 00:20:06;;;;;;;;;;;;;;;23.10;47.86;100412.44;4977448;28;4245;-69
2023/07/03 00:22:33;;;;;;;;;;;;;;;23.08;47.46;100409.47;4980422;28;4509;-69
2023/07/03 00:24:59;;;;;;;;;;;;;;;23.08;47.82;100408.75;4977898;28;3958;-69
2023/07/03 00:27:26;;;;;;;;;;;;;;;23.06;47.80;100403.66;4983966;28;5339;-69
2023/07/03 00:29:52;;;;;;;;;;;;;;;23.04;47.82;100409.38;4982727;28;4148;-69
2023/07/03 00:32:20;;;;;;;;;;;;;;;23.02;48.00;100405.69;4995198;28;4197;-69
2023/07/03 00:34:47;;;;;;;;;;;;;;;23.00;47.67;100404.22;4978886;28;4071;-69
2023/07/03 00:37:14;;;;;;;;;;;;;;;23.00;47.81;100394.84;4979578;28;4201;-69
2023/07/03 00:39:40;;;;;;;;;;;;;;;22.97;47.85;100399.75;4977235;28;4458;-69
2023/07/03 00:42:07;;;;;;;;;;;;;;;22.93;47.48;100396.78;4995155;28;4974;-68
2023/07/03 00:44:33;;;;;;;;;;;;;;;22.96;47.65;100398.31;4991965;28;4142;-69
2023/07/03 00:47:00;;;;;;;;;;;;;;;22.96;47.40;100397.56;4979259;28;4225;-69
2023/07/03 00:49:26;;;;;;;;;;;;;;;22.91;47.49;100396.72;4984272;28;4036;-69
2023/07/03 00:51:53;;;;;;;;;;;;;;;22.91;47.81;100390.22;4998103;28;4745;-69
2023/07/03 00:54:20;;;;;;;;;;;;;;;22.90;47.70;100394.50;4981630;28;4166;-69
2023/07/03 00:56:47;;;;;;;;;;;;;;;22.88;47.86;100389.41;4998567;28;4049;-69
2023/07/03 00:59:13;;;;;;;;;;;;;;;22.85;47.58;100393.66;4991671;28;4256;-69
2023/07/03 01:01:46;;;;;;;;;;;;;;;22.83;47.68;100392.88;4982495;28;3968;-68
2023/07/03 01:04:13;;;;;;;;;;;;;;;22.81;47.67;100381.97;4980039;28;4188;-69
2023/07/03 01:06:44;;;;;;;;;;;;;;;22.82;47.64;100377.69;4982986;28;4184;-69
2023/07/03 01:09:11;;;;;;;;;;;;;;;22.76;47.60;100374.63;4976486;28;4193;-69
2023/07/03 01:11:37;;;;;;;;;;;;;;;22.78;47.37;100383.34;4972260;28;4365;-69
2023/07/03 01:14:05;;;;;;;;;;;;;;;22.77;47.70;100387.66;4981661;28;4135;-68
2023/07/03 01:16:31;;;;;;;;;;;;;;;22.78;47.55;100383.34;4996240;28;4174;-69
2023/07/03 01:18:58;;;;;;;;;;;;;;;22.76;47.49;100380.41;4984798;28;4023;-69
2023/07/03 01:21:28;;;;;;;;;;;;;;;22.77;47.38;100376.13;5002522;28;4140;-69
2023/07/03 01:23:57;;;;;;;;;;;;;;;22.75;47.68;100373.16;4983739;28;4019;-69
2023/07/03 01:26:23;;;;;;;;;;;;;;;22.73;47.41;100376.00;4985574;28;4175;-69
2023/07/03 01:28:51;;;;;;;;;;;;;;;22.76;47.64;100374.63;4980898;28;3962;-69
2023/07/03 01:31:17;;;;;;;;;;;;;;;22.74;47.55;100372.41;4996362;28;3993;-69
2023/07/03 01:33:45;;;;;;;;;;;;;;;22.75;47.79;100376.06;4992817;28;4055;-69
2023/07/03 01:36:12;;;;;;;;;;;;;;;22.74;47.55;100366.63;5001287;28;4280;-69
2023/07/03 01:38:40;;;;;;;;;;;;;;;22.72;47.82;100369.50;4991203;28;4667;-69
2023/07/03 01:41:06;;;;;;;;;;;;;;;22.74;47.67;100377.44;4990948;28;4195;-68
2023/07/03 01:43:32;;;;;;;;;;;;;;;22.74;47.87;100368.78;4985846;28;4135;-69
2023/07/03 01:45:59;;;;;;;;;;;;;;;22.76;47.88;100357.31;5002080;28;5046;-69
2023/07/03 01:48:25;;;;;;;;;;;;;;;22.76;47.81;100368.84;4986462;28;4171;-69
2023/07/03 01:50:52;;;;;;;;;;;;;;;22.76;47.78;100363.81;4987263;28;4180;-69
2023/07/03 01:53:22;;;;;;;;;;;;;;;22.74;47.86;100366.63;4984614;28;4136;-69
2023/07/03 01:55:49;;;;;;;;;;;;;;;22.73;48.14;100359.41;4989581;28;3972;-69
2023/07/03 01:58:23;;;;;;;;;;;;;;;22.76;48.28;100352.25;4986282;28;4189;-69
2023/07/03 02:00:51;;;;;;;;;;;;;;;22.75;48.08;100356.56;5003961;28;4140;-69
2023/07/03 02:03:26;;;;;;;;;;;;;;;22.77;47.83;100358.78;4994530;28;4412;-69
2023/07/03 02:05:53;;;;;;;;;;;;;;;22.76;47.96;100360.94;4981380;28;4017;-69
2023/07/03 02:08:21;;;;;;;;;;;;;;;22.76;48.19;100360.94;4989725;28;4259;-69
2023/07/03 02:10:49;;;;;;;;;;;;;;;22.75;48.15;100355.84;4982161;28;4149;-69
2023/07/03 02:13:15;;;;;;;;;;;;;;;22.76;47.98;100360.19;4970322;28;4194;-69
2023/07/03 02:15:43;;;;;;;;;;;;;;;22.76;47.95;100363.81;4986263;28;4388;-69
2023/07/03 02:18:17;;;;;;;;;;;;;;;22.76;48.15;100352.25;4983175;28;4230;-69
2023/07/03 02:20:45;;;;;;;;;;;;;;;22.78;48.19;100360.25;4998950;28;4203;-69
2023/07/03 02:23:11;;;;;;;;;;;;;;;22.83;48.03;100356.06;4984368;28;4099;-69
2023/07/03 02:25:41;;;;;;;;;;;;;;;22.84;48.09;100351.78;4992553;28;4058;-69
2023/07/03 02:28:08;;;;;;;;;;;;;;;22.87;48.03;100364.13;5000860;28;4126;-69
2023/07/03 02:30:34;;;;;;;;;;;;;;;22.83;48.02;100350.28;4984399;28;4118;-69
2023/07/03 02:33:01;;;;;;;;;;;;;;;22.87;48.15;100355.44;4985715;28;4197;-69
2023/07/03 02:35:27;;;;;;;;;;;;;;;22.84;48.36;100356.78;4982167;28;4144;-69
2023/07/03 02:37:54;;;;;;;;;;;;;;;22.79;48.05;100353.06;4979009;28;4235;-69
2023/07/03 02:40:20;;;;;;;;;;;;;;;22.77;48.02;100353.03;4983804;28;4206;-69
2023/07/03 02:42:47;;;;;;;;;;;;;;;22.82;48.01;100348.84;4986494;28;4224;-69
2023/07/03 02:45:13;;;;;;;;;;;;;;;22.81;47.97;100353.13;4985013;28;4144;-69
2023/07/03 02:47:40;;;;;;;;;;;;;;;22.79;48.08;100353.06;4986564;28;4332;-69
2023/07/03 02:50:10;;;;;;;;;;;;;;;22.82;48.22;100351.72;4976889;28;4166;-69
2023/07/03 02:52:37;;;;;;;;;;;;;;;22.81;48.04;100358.88;5000102;28;4107;-69
2023/07/03 02:55:07;;;;;;;;;;;;;;;22.82;48.20;100353.88;5000025;28;4237;-69
2023/07/03 02:57:33;;;;;;;;;;;;;;;22.82;48.12;100357.50;4980772;28;4009;-69
2023/07/03 02:59:59;;;;;;;;;;;;;;;22.78;48.11;100360.25;4994658;28;4226;-69
2023/07/03 03:02:26;;;;;;;;;;;;;;;22.83;48.39;100355.34;4980432;28;4387;-69
2023/07/03 03:04:53;;;;;;;;;;;;;;;22.81;48.31;100347.34;4978102;28;4244;-69
2023/07/03 03:07:19;;;;;;;;;;;;;;;22.83;48.47;100344.50;4998371;28;4044;-69
2023/07/03 03:09:46;;;;;;;;;;;;;;;22.86;48.21;100346.06;4995648;28;4756;-69
2023/07/03 03:12:12;;;;;;;;;;;;;;;22.83;48.70;100353.19;4996930;28;4074;-69
2023/07/03 03:14:40;;;;;;;;;;;;;;;22.79;48.83;100344.41;4982662;28;4137;-69
2023/07/03 03:17:06;;;;;;;;;;;;;;;22.78;48.88;100337.16;4981561;28;4583;-69
2023/07/03 03:19:32;;;;;;;;;;;;;;;22.78;48.64;100343.66;4984527;28;4221;-69
2023/07/03 03:21:59;;;;;;;;;;;;;;;22.80;48.73;100335.06;4981454;28;4121;-69
2023/07/03 03:24:26;;;;;;;;;;;;;;;22.78;48.80;100329.22;5000070;28;4212;-69
2023/07/03 03:26:52;;;;;;;;;;;;;;;22.77;48.76;100329.94;4993673;28;4322;-69
2023/07/03 03:29:19;;;;;;;;;;;;;;;22.75;49.12;100336.38;4996678;28;4245;-69
2023/07/03 03:31:45;;;;;;;;;;;;;;;22.77;48.84;100329.94;4983272;28;4082;-69
2023/07/03 03:34:12;;;;;;;;;;;;;;;22.84;48.79;100328.69;4996960;28;4364;-71
2023/07/03 03:36:39;;;;;;;;;;;;;;;22.80;48.86;100331.44;4981645;28;4455;-72
2023/07/03 03:39:07;;;;;;;;;;;;;;;22.68;48.57;100322.47;5004668;28;4052;-83
2023/07/03 03:41:34;;;;;;;;;;;;;;;22.68;48.96;100334.72;5002449;28;4290;-83
2023/07/03 03:44:01;;;;;;;;;;;;;;;22.75;48.65;100329.88;4991005;28;4502;-81
2023/07/03 03:46:28;;;;;;;;;;;;;;;22.71;48.91;100332.63;5006368;28;4193;-82
2023/07/03 03:48:54;;;;;;;;;;;;;;;22.68;48.95;100336.88;4987737;28;4269;-82
2023/07/03 03:51:21;;;;;;;;;;;;;;;22.69;48.96;100329.69;4986453;28;5127;-81
2023/07/03 03:53:48;;;;;;;;;;;;;;;22.69;48.99;100333.31;5004183;28;4184;-81
2023/07/03 03:56:15;;;;;;;;;;;;;;;22.66;49.21;100331.06;5001676;28;4461;-81
2023/07/03 03:58:41;;;;;;;;;;;;;;;22.65;49.20;100335.34;4991857;28;4152;-82
2023/07/03 04:01:08;;;;;;;;;;;;;;;22.66;49.33;100336.81;4988432;28;4145;-80
2023/07/03 04:03:34;;;;;;;;;;;;;;;22.69;49.50;100330.41;4989996;28;4003;-80
2023/07/03 04:06:01;;;;;;;;;;;;;;;22.66;49.30;100325.28;4992883;28;3961;-80
2023/07/03 04:08:27;;;;;;;;;;;;;;;22.64;49.13;100331.00;4986618;28;4135;-79
2023/07/03 04:10:54;;;;;;;;;;;;;;;22.64;49.12;100339.66;4991663;28;4019;-80
2023/07/03 04:13:20;;;;;;;;;;;;;;;22.61;49.13;100327.31;4987983;28;4241;-80
2023/07/03 04:15:51;;;;;;;;;;;;;;;22.62;48.99;100330.94;4988203;28;4090;-79
2023/07/03 04:18:19;;;;;;;;;;;;;;;22.68;48.90;100322.47;4985995;28;4132;-80
2023/07/03 04:20:45;;;;;;;;;;;;;;;22.69;49.03;100323.91;4988863;28;4028;-79
2023/07/03 04:23:12;;;;;;;;;;;;;;;22.66;49.36;100322.41;4986960;28;3970;-79
2023/07/03 04:25:38;;;;;;;;;;;;;;;22.64;49.11;100319.44;4986043;28;4148;-80
2023/07/03 04:28:04;;;;;;;;;;;;;;;22.64;48.99;100325.22;4981543;28;5406;-80
2023/07/03 04:30:31;;;;;;;;;;;;;;;22.67;49.09;100323.84;4985673;28;4408;-79
2023/07/03 04:32:57;;;;;;;;;;;;;;;22.68;49.32;100322.47;4980581;28;4238;-80
2023/07/03 04:35:24;;;;;;;;;;;;;;;22.64;49.16;100328.13;4982409;28;4164;-80
2023/07/03 04:37:50;;;;;;;;;;;;;;;22.63;49.37;100324.50;4987762;28;4174;-81
2023/07/03 04:40:17;;;;;;;;;;;;;;;22.65;49.25;100329.56;4985549;28;4132;-79
2023/07/03 04:42:43;;;;;;;;;;;;;;;22.74;48.99;100334.16;4982747;28;6205;-79
2023/07/03 04:45:10;;;;;;;;;;;;;;;22.93;48.17;100324.59;4981801;28;4196;-80
2023/07/03 04:47:37;;;;;;;;;;;;;;;22.91;48.13;100326.69;4983035;28;3966;-81
2023/07/03 04:50:05;;;;;;;;;;;;;;;22.85;48.33;100324.38;4981493;28;4190;-79
2023/07/03 04:52:32;;;;;;;;;;;;;;;22.87;47.59;100318.66;4986078;28;4214;-80
2023/07/03 04:54:58;;;;;;;;;;;;;;;22.91;47.53;100321.66;4988896;28;4078;-81
2023/07/03 04:57:26;;;;;;;;;;;;;;;23.00;47.36;100326.25;4989655;28;4124;-81
2023/07/03 04:59:54;;;;;;;;;;;;;;;22.88;46.62;100317.22;4985401;28;5349;-76
2023/07/03 05:02:21;;;;;;;;;;;;;;;22.28;47.05;100322.72;4979321;28;4318;-77
2023/07/03 05:04:47;;;;;;;;;;;;;;;22.15;47.77;100322.34;4982079;28;4061;-76
2023/07/03 05:07:15;;;;;;;;;;;;;;;22.13;47.64;100324.44;4976102;28;4296;-73
2023/07/03 05:09:42;;;;;;;;;;;;;;;21.96;47.07;100315.25;4982615;28;4038;-75
2023/07/03 05:12:08;;;;;;;;;;;;;;;21.94;47.88;100312.34;4978684;28;4118;-73
2023/07/03 05:14:35;;;;;;;;;;;;;;;22.20;47.32;100319.59;4984808;28;4896;-74
2023/07/03 05:17:02;;;;;;;;;;;;;;;22.44;46.97;100311.66;4976537;28;4291;-70
2023/07/03 05:19:28;;;;;;;;;;;;;;;22.75;46.20;100318.31;4983277;28;4051;-69
2023/07/03 05:21:55;;;;;;;;;;;;;;;22.81;45.94;100315.59;4980025;28;4369;-69
2023/07/03 05:24:21;;;;;;;;;;;;;;;22.91;45.78;100304.34;4982692;28;4066;-70
2023/07/03 05:26:48;;;;;;;;;;;;;;;22.96;45.93;100323.22;4981996;28;4135;-70
2023/07/03 05:29:14;;;;;;;;;;;;;;;22.72;45.84;100325.44;4980550;28;4344;-69
2023/07/03 05:31:40;;;;;;;;;;;;;;;22.76;46.08;100322.69;4986993;28;4156;-71
2023/07/03 05:34:07;;;;;;;;;;;;;;;22.46;45.74;100319.66;4983693;28;3974;-70
2023/07/03 05:36:35;;;;;;;;;;;;;;;22.81;45.84;100318.47;4982211;28;4538;-72
2023/07/03 05:39:02;;;;;;;;;;;;;;;22.78;45.38;100331.38;4984698;28;4185;-71
2023/07/03 05:41:29;;;;;;;;;;;;;;;22.80;45.53;100322.78;4980308;28;4455;-71
2023/07/03 05:43:55;;;;;;;;;;;;;;;22.87;45.21;100321.53;4981439;28;4372;-71
2023/07/03 05:46:22;;;;;;;;;;;;;;;22.91;45.46;100330.31;4984398;28;4156;-71
2023/07/03 05:48:49;;;;;;;;;;;;;;;22.86;45.18;100331.63;4988670;28;4183;-71
2023/07/03 05:51:15;;;;;;;;;;;;;;;22.75;45.18;100339.25;4980510;28;3971;-73
2023/07/03 05:53:42;;;;;;;;;;;;;;;22.73;45.86;100344.25;4974927;28;4200;-75
2023/07/03 05:56:08;;;;;;;;;;;;;;;22.68;46.24;100340.50;4982452;28;4183;-74
2023/07/03 05:58:35;;;;;;;;;;;;;;;22.63;46.08;100344.69;4984177;28;4072;-75
2023/07/03 06:01:03;;;;;;;;;;;;;;;22.62;46.16;100336.72;4987234;28;4175;-74
2023/07/03 06:03:31;;;;;;;;;;;;;;;22.66;45.72;100342.59;4983195;28;4245;-75
2023/07/03 06:05:58;;;;;;;;;;;;;;;22.65;46.01;100341.13;4983793;28;4178;-75
2023/07/03 06:08:24;;;;;;;;;;;;;;;22.70;45.92;100337.69;4983062;28;4088;-75
2023/07/03 06:10:52;;;;;;;;;;;;;;;22.64;46.15;100345.44;4984552;28;4051;-75
2023/07/03 06:13:18;;;;;;;;;;;;;;;22.62;46.02;100348.25;4987198;28;4121;-74
2023/07/03 06:15:45;;;;;;;;;;;;;;;22.64;45.94;100351.19;4979449;28;4202;-75
2023/07/03 06:18:11;;;;;;;;;;;;;;;22.51;45.53;100347.94;4986625;28;4196;-77
2023/07/03 06:20:38;;;;;;;;;;;;;;;22.62;45.38;100348.25;4985034;28;4144;-77
2023/07/03 06:23:05;;;;;;;;;;;;;;;22.72;45.56;100349.28;4986474;28;4147;-76
2023/07/03 06:25:31;;;;;;;;;;;;;;;22.70;45.98;100345.59;4984808;28;4258;-76
2023/07/03 06:27:58;;;;;;;;;;;;;;;22.65;46.10;100350.50;4987478;28;4159;-74
2023/07/03 06:30:24;;;;;;;;;;;;;;;22.91;46.50;100356.31;5008956;28;4123;-70
2023/07/03 06:32:51;;;;;;;;;;;;;;;23.11;46.16;100349.63;4998593;28;4225;-69
2023/07/03 06:35:19;;;;;;;;;;;;;;;23.18;46.01;100354.16;5005995;28;4144;-69
2023/07/03 06:37:45;;;;;;;;;;;;;;;23.16;46.01;100345.44;5003986;28;4029;-70
2023/07/03 06:40:14;;;;;;;;;;;;;;;23.17;45.90;100364.25;5006127;28;4067;-70
2023/07/03 06:42:40;;;;;;;;;;;;;;;23.36;45.39;100366.19;5000162;28;4011;-71
2023/07/03 06:45:13;;;;;;;;;;;;;;;23.32;45.92;100357.44;5004710;28;4312;-70
2023/07/03 06:47:39;;;;;;;;;;;;;;;23.35;45.66;100361.84;5001944;28;4058;-71
2023/07/03 06:50:06;;;;;;;;;;;;;;;23.33;45.34;100369.72;4998428;28;3979;-70
2023/07/03 06:52:33;;;;;;;;;;;;;;;23.47;45.60;100364.31;4991183;28;4348;-71
2023/07/03 06:55:00;;;;;;;;;;;;;;;23.66;45.02;100356.81;5001800;28;4069;-72
2023/07/03 06:57:26;;;;;;;;;;;;;;;23.65;44.56;100352.47;5003263;28;4229;-71
2023/07/03 06:59:53;;;;;;;;;;;;;;;23.68;44.94;100365.53;5001214;28;4596;-70
2023/07/03 07:02:19;;;;;;;;;;;;;;;23.66;44.95;100364.75;4996831;28;4070;-70
2023/07/03 07:04:46;;;;;;;;;;;;;;;23.73;44.78;100370.03;5003189;28;4068;-71
2023/07/03 07:07:12;;;;;;;;;;;;;;;23.70;44.38;100364.88;4999389;28;4038;-70
2023/07/03 07:09:39;;;;;;;;;;;;;;;23.71;44.76;100372.88;4997952;28;5113;-71
2023/07/03 07:12:05;;;;;;;;;;;;;;;23.74;44.50;100379.44;5000468;28;4034;-71
2023/07/03 07:14:31;;;;;;;;;;;;;;;23.77;44.44;100369.41;4999846;28;4150;-71
2023/07/03 07:16:58;;;;;;;;;;;;;;;23.83;44.49;100370.28;5002057;28;4676;-72
2023/07/03 07:19:25;;;;;;;;;;;;;;;23.82;44.22;100383.28;5004920;28;4438;-71
2023/07/03 07:21:51;;;;;;;;;;;;;;;23.85;44.29;100380.44;5003050;28;4150;-70
2023/07/03 07:24:19;;;;;;;;;;;;;;;23.89;44.17;100374.75;4996508;28;4145;-77
2023/07/03 07:26:45;;;;;;;;;;;;;;;23.41;44.76;100370.66;5017895;28;4092;-74
2023/07/03 07:29:12;;;;;;;;;;;;;;;23.24;44.89;100377.44;4998500;28;4776;-76
2023/07/03 07:31:38;;;;;;;;;;;;;;;23.18;45.49;100380.13;5007832;28;4764;-74
2023/07/03 07:34:08;;;;;;;;;;;;;;;23.14;45.64;100380.06;4997319;28;3983;-76
2023/07/03 07:36:34;;;;;;;;;;;;;;;23.30;44.92;100377.59;5001604;28;4197;-78
2023/07/03 07:39:00;;;;;;;;;;;;;;;23.47;44.48;100380.91;4998734;28;4182;-78
2023/07/03 07:41:27;;;;;;;;;;;;;;;23.59;44.79;100378.31;5006909;28;4202;-77
2023/07/03 07:43:53;;;;;;;;;;;;;;;23.63;44.50;100378.44;5004569;28;4118;-74
2023/07/03 07:46:20;;;;;;;;;;;;;;;23.71;44.32;100384.44;4992250;28;4330;-75
2023/07/03 07:48:47;;;;;;;;;;;;;;;23.87;44.41;100380.47;4985755;28;4041;-74
2023/07/03 07:51:13;;;;;;;;;;;;;;;23.61;44.14;100387.78;4993254;28;3981;-76
2023/07/03 07:53:39;;;;;;;;;;;;;;;23.36;44.49;100380.63;4986338;28;3981;-76
2023/07/03 07:56:07;;;;;;;;;;;;;;;23.40;44.18;100380.00;4997629;28;4070;-77
2023/07/03 07:58:33;;;;;;;;;;;;;;;23.62;44.34;100379.84;4991007;28;4121;-72
2023/07/03 08:01:00;;;;;;;;;;;;;;;23.53;44.22;100381.06;4989722;28;4424;-74
2023/07/03 08:03:26;;;;;;;;;;;;;;;23.48;44.54;100373.69;4989431;28;4338;-78
2023/07/03 08:05:57;;;;;;;;;;;;;;;23.42;44.32;100360.56;5003454;28;4074;-73
2023/07/03 08:08:25;;;;;;;;;;;;;;;23.36;44.54;100362.56;4989885;28;4103;-71
2023/07/03 08:10:52;;;;;;;;;;;;;;;23.47;44.29;100369.34;4988623;28;4091;-71
2023/07/03 08:13:19;;;;;;;;;;;;;;;23.67;44.10;100366.97;4994070;28;4261;-71
2023/07/03 08:15:45;;;;;;;;;;;;;;;23.70;44.19;100365.59;4989290;28;4059;-69
2023/07/03 08:18:12;;;;;;;;;;;;;;;23.71;44.21;100364.19;4988463;28;4416;-68
2023/07/03 08:20:38;;;;;;;;;;;;;;;23.71;43.94;100367.09;4989645;28;4186;-67
2023/07/03 08:23:05;;;;;;;;;;;;;;;23.60;44.69;100362.47;4991027;28;4242;-72
2023/07/03 08:25:32;;;;;;;;;;;;;;;23.77;44.31;100361.47;4986634;28;4351;-72
2023/07/03 08:27:59;;;;;;;;;;;;;;;23.53;43.88;100366.63;4990198;28;4218;-74
2023/07/03 08:30:25;;;;;;;;;;;;;;;23.37;44.22;100359.00;4986146;28;4468;-75
2023/07/03 08:32:52;;;;;;;;;;;;;;;23.53;43.77;100376.03;4989473;28;4156;-73
2023/07/03 08:35:18;;;;;;;;;;;;;;;23.70;43.50;100370.66;4999557;28;4089;-72
2023/07/03 08:37:48;;;;;;;;;;;;;;;23.96;43.54;100367.69;4990576;28;4294;-71
2023/07/03 08:40:17;;;;;;;;;;;;;;;24.05;42.86;100363.56;4987252;28;4037;-74
2023/07/03 08:42:47;;;;;;;;;;;;;;;24.12;42.35;100367.31;4994171;28;4255;-74
2023/07/03 08:45:14;;;;;;;;;;;;;;;23.81;42.18;100369.50;4990992;28;4177;-71
2023/07/03 08:47:41;;;;;;;;;;;;;;;23.75;42.11;100372.25;4996131;28;4219;-77
2023/07/03 08:50:08;;;;;;;;;;;;;;;23.60;41.97;100362.47;4991842;28;5123;-74
2023/07/03 08:52:41;;;;;;;;;;;;;;;23.47;42.05;100375.13;5011176;28;4001;-76
2023/07/03 08:55:09;;;;;;;;;;;;;;;23.52;41.54;100373.81;5006265;28;4175;-75
2023/07/03 08:57:36;;;;;;;;;;;;;;;23.51;41.21;100372.34;4988978;28;4120;-75
2023/07/03 09:00:10;;;;;;;;;;;;;;;23.34;42.66;100374.81;4989081;28;4145;-71
2023/07/03 09:02:41;;;;;;;;;;;;;;;23.35;42.22;100378.44;4986287;28;4158;-75
2023/07/03 09:05:13;;;;;;;;;;;;;;;23.76;41.21;100377.34;5013086;28;4001;-80
2023/07/03 09:07:44;;;;;;;;;;;;;;;23.92;40.38;100373.38;4989027;28;4246;-74
2023/07/03 09:10:12;;;;;;;;;;;;;;;24.05;39.83;100386.69;5006653;28;4181;-79
2023/07/03 09:12:41;;;;;;;;;;;;;;;24.08;39.14;100384.59;5008025;28;4286;-75
2023/07/03 09:15:07;;;;;;;;;;;;;;;23.99;38.93;100378.63;4992493;28;4447;-75
2023/07/03 09:17:34;;;;;;;;;;;;;;;24.01;38.33;100383.72;4985970;28;4084;-77
2023/07/03 09:20:00;;;;;;;;;;;;;;;23.79;38.06;100378.13;4991409;28;4549;-79
2023/07/03 09:22:34;;;;;;;;;;;;;;;23.76;37.96;100391.81;4986848;28;4386;-74
2023/07/03 09:25:01;;;;;;;;;;;;;;;23.81;38.00;100384.69;5001839;28;4215;-78
2023/07/03 09:27:28;;;;;;;;;;;;;;;23.94;37.68;100391.53;4993369;28;4815;-76
2023/07/03 09:29:55;;;;;;;;;;;;;;;24.18;38.37;100394.25;4994699;28;4282;-77
2023/07/03 09:32:25;;;;;;;;;;;;;;;24.21;37.60;100395.78;4980175;28;4095;-76
2023/07/03 09:35:00;;;;;;;;;;;;;;;23.77;38.41;100386.75;4995811;28;4179;-78
2023/07/03 09:37:27;;;;;;;;;;;;;;;23.87;39.32;100400.72;4982858;28;4532;-66
2023/07/03 09:39:54;;;;;;;;;;;;;;;23.94;39.56;100394.41;4983274;28;4197;-79
2023/07/03 09:42:20;;;;;;;;;;;;;;;23.99;39.72;100403.91;4980793;28;4203;-75
2023/07/03 09:44:47;;;;;;;;;;;;;;;23.97;39.77;100398.09;4985597;28;4164;-77
2023/07/03 09:47:17;;;;;;;;;;;;;;;23.92;39.00;100396.53;4978864;28;4122;-73
2023/07/03 09:49:43;;;;;;;;;;;;;;;23.78;39.53;100412.09;4992998;28;4112;-76
2023/07/03 09:52:09;;;;;;;;;;;;;;;23.66;39.31;100411.00;4982684;28;4287;-77
2023/07/03 09:54:36;;;;;;;;;;;;;;;23.68;38.92;100403.13;4987029;28;4088;-78
2023/07/03 09:57:04;;;;;;;;;;;;;;;23.93;39.95;100412.44;4999685;28;4353;-74
2023/07/03 09:59:31;;;;;;;;;;;;;;;24.10;39.42;100411.41;4988804;28;4023;-77
2023/07/03 10:01:57;;;;;;;;;;;;;;;24.16;39.00;100414.44;4990306;28;4514;-78
2023/07/03 10:04:29;;;;;;;;;;;;;;;24.19;38.38;100413.09;5005352;28;4313;-77
2023/07/03 10:07:00;;;;;;;;;;;;;;;24.25;38.18;100416.09;4988646;28;4201;-75
2023/07/03 10:09:30;;;;;;;;;;;;;;;24.24;37.83;100413.91;4988503;28;4238;-76
2023/07/03 10:12:09;;;;;;;;;;;;;;;23.84;38.91;100425.94;4986269;28;4385;-74
2023/07/03 10:14:56;;;;;;;;;;;;;;;23.81;38.72;100422.28;4988522;28;4028;-73
2023/07/03 10:17:25;;;;;;;;;;;;;;;23.76;38.82;100417.81;5004803;28;4212;-72
2023/07/03 10:19:53;;;;;;;;;;;;;;;23.75;38.37;100424.28;4989603;28;4044;-80
2023/07/03 10:22:19;;;;;;;;;;;;;;;23.71;38.73;100422.00;4982143;28;4397;-73
2023/07/03 10:24:46;;;;;;;;;;;;;;;23.67;38.84;100424.78;4983673;28;4899;-72
2023/07/03 10:27:13;;;;;;;;;;;;;;;23.55;39.25;100430.25;4994507;28;4196;-71
2023/07/03 10:29:41;;;;;;;;;;;;;;;23.70;38.17;100411.84;4992936;28;4200;-72
2023/07/03 10:32:13;;;;;;;;;;;;;;;23.77;38.38;100415.66;5002852;28;4040;-77
2023/07/03 10:34:42;;;;;;;;;;;;;;;23.79;38.33;100418.59;4985918;28;4219;-80
2023/07/03 10:37:10;;;;;;;;;;;;;;;23.82;38.33;100415.09;5005593;28;4198;-79
2023/07/03 10:39:41;;;;;;;;;;;;;;;23.85;38.46;100415.16;4995186;28;5159;-76
2023/07/03 10:42:10;;;;;;;;;;;;;;;23.93;38.87;100412.44;4988868;28;4104;-74
2023/07/03 10:44:37;;;;;;;;;;;;;;;23.89;38.49;100426.78;4990310;28;4042;-79
2023/07/03 10:47:06;;;;;;;;;;;;;;;23.81;38.66;100433.13;5008253;28;4150;-81
2023/07/03 10:49:33;;;;;;;;;;;;;;;23.81;38.90;100436.72;4997124;28;4439;-74
2023/07/03 10:52:02;;;;;;;;;;;;;;;23.83;39.04;100428.13;4995909;28;4110;-74
2023/07/03 10:54:36;;;;;;;;;;;;;;;23.83;39.53;100436.78;4983260;28;5215;-76
2023/07/03 10:57:03;;;;;;;;;;;;;;;23.82;39.76;100423.75;4991497;28;4849;-76
2023/07/03 10:59:33;;;;;;;;;;;;;;;23.80;40.32;100432.38;4985530;28;4121;-76
2023/07/03 11:02:16;;;;;;;;;;;;;;;23.80;40.41;100438.16;5003162;28;5150;-76
2023/07/03 11:04:52;;;;;;;;;;;;;;;23.77;40.84;100445.31;4993336;28;5434;-76
2023/07/03 11:07:40;;;;;;;;;;;;;;;23.76;41.13;100438.06;4987122;28;4156;-76
2023/07/03 11:10:07;;;;;;;;;;;;;;;23.75;41.21;100433.69;5001646;28;4087;-75
2023/07/03 11:12:52;;;;;;;;;;;;;;;23.76;41.46;100437.31;4984302;28;4070;-76
2023/07/03 11:15:37;;;;;;;;;;;;;;;23.76;41.56;100438.06;4991383;28;4148;-76
2023/07/03 11:18:06;;;;;;;;;;;;;;;23.76;41.67;100434.44;4990901;28;4060;-71
2023/07/03 11:20:44;;;;;;;;;;;;;;;23.75;42.15;100430.78;4990556;28;4133;-76
2023/07/03 11:23:18;;;;;;;;;;;;;;;23.72;42.15;100437.91;5002325;28;4223;-75
2023/07/03 11:26:03;;;;;;;;;;;;;;;23.72;42.19;100440.06;4987521;28;4136;-76
2023/07/03 11:28:38;;;;;;;;;;;;;;;23.72;42.19;100440.06;5002831;28;4891;-75
2023/07/03 11:31:04;;;;;;;;;;;;;;;23.71;42.42;100438.59;4988042;28;4144;-75
2023/07/03 11:33:31;;;;;;;;;;;;;;;23.70;42.55;100449.44;4991138;28;4021;-76
2023/07/03 11:36:00;;;;;;;;;;;;;;;23.71;42.87;100453.81;4982403;28;4195;-76
2023/07/03 11:38:27;;;;;;;;;;;;;;;23.72;42.47;100451.66;4985490;28;4079;-76
2023/07/03 11:40:57;;;;;;;;;;;;;;;23.71;42.88;100453.81;5002322;28;4146;-76
2023/07/03 11:43:32;;;;;;;;;;;;;;;23.72;42.83;100455.25;4990396;28;4044;-76
2023/07/03 11:45:58;;;;;;;;;;;;;;;23.71;43.28;100453.81;4984609;28;4065;-76
2023/07/03 11:48:28;;;;;;;;;;;;;;;23.71;43.42;100465.38;4988520;28;4133;-75
2023/07/03 11:50:56;;;;;;;;;;;;;;;23.70;43.35;100463.88;4984544;28;4203;-76
2023/07/03 11:53:32;;;;;;;;;;;;;;;23.71;43.16;100465.38;4986701;28;3969;-76
2023/07/03 11:55:59;;;;;;;;;;;;;;;23.71;43.43;100474.03;4989323;28;4370;-76
2023/07/03 11:58:25;;;;;;;;;;;;;;;23.71;43.44;100474.03;4986546;28;5535;-76
2023/07/03 12:01:12;;;;;;;;;;;;;;;23.69;43.63;100479.75;4993063;28;4508;-76
2023/07/03 12:03:52;;;;;;;;;;;;;;;23.62;43.13;100492.59;4982986;28;4196;-81
2023/07/03 12:06:42;;;;;;;;;;;;;;;23.26;40.51;100493.03;4983365;28;4122;-79
2023/07/03 12:09:19;;;;;;;;;;;;;;;23.67;39.71;100484.75;4987805;28;4480;-73
2023/07/03 12:11:59;;;;;;;;;;;;;;;23.94;39.31;100495.63;4987147;28;4205;-72
2023/07/03 12:14:40;;;;;;;;;;;;;;;24.18;39.02;100501.28;4980911;28;5054;-72
2023/07/03 12:17:16;;;;;;;;;;;;;;;24.23;39.15;100488.41;4987318;28;4436;-71
2023/07/03 12:19:42;;;;;;;;;;;;;;;24.24;39.17;100486.97;4987812;28;4407;-71
2023/07/03 12:22:12;;;;;;;;;;;;;;;23.93;39.40;100490.50;4988629;28;4168;-72
2023/07/03 12:24:39;;;;;;;;;;;;;;;23.75;39.51;100488.59;4988108;28;4077;-72
2023/07/03 12:27:05;;;;;;;;;;;;;;;23.64;39.66;100507.09;4993011;28;4052;-72
2023/07/03 12:29:32;;;;;;;;;;;;;;;24.03;40.33;100487.91;4981302;28;4031;-71
2023/07/03 12:32:05;;;;;;;;;;;;;;;24.22;40.19;100483.28;4985880;28;4100;-71
2023/07/03 12:34:32;;;;;;;;;;;;;;;24.29;40.05;100489.97;4986707;28;4103;-69
2023/07/03 12:37:00;;;;;;;;;;;;;;;24.38;39.79;100491.63;4984635;28;4139;-69
2023/07/03 12:39:28;;;;;;;;;;;;;;;24.44;39.63;100494.66;4985343;28;4154;-70
2023/07/03 12:42:03;;;;;;;;;;;;;;;24.48;39.65;100489.00;4999444;28;4465;-71
2023/07/03 12:44:29;;;;;;;;;;;;;;;24.39;39.54;100487.31;4982357;28;4633;-73
2023/07/03 12:47:05;;;;;;;;;;;;;;;24.25;40.21;100491.31;4986742;28;4153;-73
2023/07/03 12:49:31;;;;;;;;;;;;;;;24.51;39.41;100487.63;4985833;28;4401;-74
2023/07/03 12:51:58;;;;;;;;;;;;;;;24.59;39.07;100487.09;4984823;28;4025;-73